Lenore, ID (83541)

2:26 AM PST on February 06, 2016 (GMT -0800)
Linden-Cedar Ridge | | Change Station
CLOSE
Current Station
Personal Weather Station
Location: Kendrick, ID
Elevation: 2707 ft
Nearby Weather Stations

Elev 2707 ft 46.69 °N, 116.50 °W | Updated 8 seconds ago

Overcast
Overcast
40.6 °F
Feels Like 41 °F
N
2.9
Wind Variable Wind from ENE
Gusts 6.0 mph

Today
High -- | Low -- °F
--% Chance of Precip.
Yesterday
High -- | Low -- °F
Precip. -- in
Pressure 30.23 in
Visibility 10.0 miles
Clouds Few 6500 ft
Scattered Clouds 8500 ft
Mostly Cloudy 10000 ft
Windchill 41 °F
Dew Point 34 °F
Humidity 76%
Rainfall 0.00 in
Snow Depth Not available.
7:03 AM 4:56 PM
Waning Crescent, 6% visible
METAR KLWS 060956Z AUTO 23004KT 10SM FEW065 SCT085 BKN100 08/M01 A3021 RMK AO2 SLP236 T00781006
Pressure 30.23 in
Visibility 10.0 miles
Clouds Few 6500 ft
Scattered Clouds 8500 ft
Mostly Cloudy 10000 ft
Windchill 41 °F
Dew Point 34 °F
Humidity 76%
Rainfall 0.00 in
Snow Depth Not available.
7:03 AM 4:56 PM
Waning Crescent, 6% visible
METAR KLWS 060956Z AUTO 23004KT 10SM FEW065 SCT085 BKN100 08/M01 A3021 RMK AO2 SLP236 T00781006

10-Day Weather Forecast

Almanac

Astronomy

Feb. 06, 2016 Rise Set
Actual Time
Civil Twilight
Nautical Twilight
Astronomical Twilight
Moon
Length of Visible Light
Length of Day
Tomorrow will be .
, % of the Moon is Illuminated

Today's Extremes

State Highs State Lows

Community

WunderPhotos

Upload Photos

1,890,933 photos uploaded!

WunderBlog® & News

Nearby

Air Quality

  Air Quality AQ Index Pollutant
Not available.

Snow Depth

Station Depth Elevation

Earthquake Activity

City Distance Mag. Time & Date
Minimum magnitude displayed is 2.5.

Coastal Water Temperatures

Place Temperature

Stations

Nearby Weather Stations

Station Location Temp. Windchill Dew Point Humidity Wind Precip. Elev Updated Type
                   

Watches & Warnings

There are currently no watches in effect.